Time;durP1;ratioP1;P1;durP2;ratioP2;P2;SDS_P1;SDS_P2;PMS_P1;PMS_P2;Temp;Humidity;BMP_temperature;BMP_pressure;BME280_temperature;BME280_humidity;BME280_pressure;Samples;Min_cycle;Max_cycle;Signal;HPM_P1;HPM_P2
2021/09/10 00:02:04;;;;;;;5.47;3.10;;;15.60;88.00;;;;;;4987114;28;20029;-49
2021/09/10 00:04:30;;;;;;;7.30;3.22;;;15.60;87.70;;;;;;5020266;28;20564;-50
2021/09/10 00:06:56;;;;;;;7.18;3.50;;;15.40;88.20;;;;;;5053321;28;20484;-50
2021/09/10 00:09:22;;;;;;;6.53;3.42;;;15.40;88.50;;;;;;5018828;28;20119;-48
2021/09/10 00:11:47;;;;;;;9.45;3.95;;;15.40;88.10;;;;;;5073493;28;20064;-51
2021/09/10 00:14:13;;;;;;;6.53;3.42;;;15.60;87.80;;;;;;5023132;28;20044;-49
2021/09/10 00:16:39;;;;;;;13.23;3.90;;;15.60;87.80;;;;;;5073065;28;20459;-48
2021/09/10 00:19:05;;;;;;;7.65;3.28;;;15.70;87.60;;;;;;5072982;28;20041;-49
2021/09/10 00:21:31;;;;;;;9.13;3.85;;;15.70;87.60;;;;;;5073014;28;20055;-48
2021/09/10 00:23:57;;;;;;;13.05;3.83;;;15.70;87.60;;;;;;5072704;28;20040;-49
2021/09/10 00:26:22;;;;;;;5.65;3.20;;;15.70;87.40;;;;;;5110682;28;20177;-51
2021/09/10 00:28:48;;;;;;;6.22;3.53;;;15.60;87.80;;;;;;5095312;28;20458;-50
2021/09/10 00:31:14;;;;;;;7.57;3.45;;;15.60;88.00;;;;;;5095021;28;20020;-49
2021/09/10 00:33:40;;;;;;;6.55;3.60;;;15.60;88.10;;;;;;5095210;28;20138;-50
2021/09/10 00:36:06;;;;;;;6.68;3.65;;;15.60;88.30;;;;;;5095172;28;20371;-49
2021/09/10 00:38:31;;;;;;;10.23;3.85;;;15.70;88.00;;;;;;5093316;28;20047;-50
2021/09/10 00:40:58;;;;;;;9.25;3.75;;;15.70;88.10;;;;;;5110250;28;20032;-49
2021/09/10 00:43:24;;;;;;;7.10;3.58;;;15.90;87.70;;;;;;5094785;28;20050;-51
2021/09/10 00:45:50;;;;;;;8.80;4.03;;;15.90;87.30;;;;;;5094918;28;20103;-48
2021/09/10 00:48:20;;;;;;;9.35;4.03;;;15.60;87.70;;;;;;5092713;28;20543;-49
2021/09/10 00:50:48;;;;;;;5.72;3.75;;;15.20;89.80;;;;;;5094747;28;20081;-49
2021/09/10 00:53:14;;;;;;;7.35;4.30;;;15.30;89.10;;;;;;5094798;28;20040;-50
2021/09/10 00:55:41;;;;;;;7.50;4.15;;;15.60;88.60;;;;;;5094558;28;20038;-48
2021/09/10 00:58:07;;;;;;;9.88;4.10;;;15.60;88.40;;;;;;5094786;28;20046;-49
2021/09/10 01:00:33;;;;;;;11.30;4.40;;;15.70;89.00;;;;;;5092537;28;20487;-50
2021/09/10 01:02:59;;;;;;;7.43;4.13;;;15.90;87.50;;;;;;5025993;28;20123;-51
2021/09/10 01:05:24;;;;;;;14.32;4.60;;;15.90;87.40;;;;;;5092422;28;20507;-49
2021/09/10 01:07:51;;;;;;;6.70;4.50;;;15.80;87.80;;;;;;5058986;28;20036;-50
2021/09/10 01:10:18;;;;;;;8.45;4.18;;;15.50;87.90;;;;;;5092437;28;20407;-52
2021/09/10 01:12:44;;;;;;;7.63;4.00;;;15.20;89.00;;;;;;5091366;28;20040;-49
2021/09/10 01:15:11;;;;;;;7.68;4.30;;;15.10;89.30;;;;;;5058901;28;20040;-51
2021/09/10 01:17:39;;;;;;;10.80;4.50;;;15.20;89.30;;;;;;5092166;28;20119;-51
2021/09/10 01:20:07;;;;;;;11.23;4.25;;;15.10;89.70;;;;;;5058546;28;20044;-51
2021/09/10 01:22:34;;;;;;;7.00;4.05;;;15.00;90.10;;;;;;5058778;28;20044;-50
2021/09/10 01:25:05;;;;;;;7.13;4.10;;;15.00;90.10;;;;;;5092118;28;20430;-50
2021/09/10 01:27:32;;;;;;;7.43;3.83;;;15.00;90.00;;;;;;5091996;28;20186;-50
2021/09/10 01:29:58;;;;;;;6.47;4.18;;;14.80;90.30;;;;;;5092147;28;20147;-49
2021/09/10 01:32:25;;;;;;;7.55;3.85;;;15.00;90.40;;;;;;5093779;28;20044;-51
2021/09/10 01:34:51;;;;;;;4.95;4.22;;;15.10;90.40;;;;;;5094011;28;20044;-49
2021/09/10 01:37:17;;;;;;;11.98;4.75;;;15.30;89.70;;;;;;5093863;28;20071;-51
2021/09/10 01:39:43;;;;;;;7.97;4.10;;;15.40;89.50;;;;;;5094228;28;20021;-50
2021/09/10 01:42:09;;;;;;;9.27;4.88;;;15.50;89.20;;;;;;5094083;28;20035;-48
2021/09/10 01:44:35;;;;;;;7.43;3.85;;;15.50;88.80;;;;;;5093794;28;20028;-48
2021/09/10 01:47:00;;;;;;;11.73;4.88;;;15.60;88.40;;;;;;5094366;28;20471;-52
2021/09/10 01:49:26;;;;;;;7.35;4.38;;;15.60;88.60;;;;;;5093629;28;20078;-50
2021/09/10 01:51:52;;;;;;;8.45;4.40;;;15.50;88.60;;;;;;5093937;28;20036;-48
2021/09/10 01:54:18;;;;;;;9.38;4.18;;;15.60;88.40;;;;;;5093663;28;20032;-48
2021/09/10 01:56:44;;;;;;;7.18;3.97;;;15.10;90.00;;;;;;5058346;28;20101;-51
2021/09/10 01:59:09;;;;;;;9.77;4.55;;;14.80;90.70;;;;;;5093752;28;20518;-51
2021/09/10 02:01:35;;;;;;;8.75;3.95;;;14.60;91.10;;;;;;5093784;28;20552;-49
2021/09/10 02:04:01;;;;;;;10.95;3.95;;;14.70;91.20;;;;;;5093906;28;20032;-51
2021/09/10 02:06:27;;;;;;;8.07;3.90;;;14.70;91.10;;;;;;5093748;28;20032;-49
2021/09/10 02:08:53;;;;;;;9.38;4.32;;;14.80;90.90;;;;;;5058089;28;20044;-49
2021/09/10 02:11:19;;;;;;;6.25;3.67;;;14.90;90.70;;;;;;5093485;28;20035;-50
2021/09/10 02:13:45;;;;;;;5.47;4.00;;;15.00;90.90;;;;;;5093508;28;20073;-51
2021/09/10 02:16:11;;;;;;;6.93;4.45;;;15.10;90.60;;;;;;5108975;28;20421;-51
2021/09/10 02:18:40;;;;;;;7.15;4.40;;;15.30;90.30;;;;;;5093843;28;20024;-49
2021/09/10 02:21:07;;;;;;;10.15;4.40;;;15.30;90.10;;;;;;5093759;28;20036;-51
2021/09/10 02:23:33;;;;;;;8.27;3.95;;;15.40;90.00;;;;;;5093532;28;20032;-50
2021/09/10 02:25:59;;;;;;;8.88;4.60;;;15.40;89.90;;;;;;5097914;28;20426;-49
2021/09/10 02:28:25;;;;;;;7.05;4.43;;;15.50;89.60;;;;;;5112890;28;20040;-49
2021/09/10 02:30:52;;;;;;;9.40;4.72;;;15.50;89.50;;;;;;5097541;28;20036;-50
2021/09/10 02:33:18;;;;;;;8.85;4.70;;;15.50;89.30;;;;;;5113233;28;20134;-49
2021/09/10 02:35:44;;;;;;;8.40;4.55;;;15.50;89.00;;;;;;5097609;28;20032;-50
2021/09/10 02:38:10;;;;;;;8.27;4.50;;;15.50;89.00;;;;;;5097363;28;20036;-51
2021/09/10 02:40:36;;;;;;;10.07;4.38;;;15.40;89.00;;;;;;5097465;28;20024;-49
2021/09/10 02:43:03;;;;;;;8.65;4.88;;;15.30;89.30;;;;;;5095926;28;20426;-48
2021/09/10 02:45:29;;;;;;;6.88;4.18;;;15.20;89.40;;;;;;5097584;28;20102;-51
2021/09/10 02:47:55;;;;;;;13.30;5.05;;;15.30;89.20;;;;;;5096908;28;20165;-50
2021/09/10 02:50:21;;;;;;;9.80;4.22;;;15.30;89.20;;;;;;5085477;28;20174;-51
2021/09/10 02:52:48;;;;;;;9.15;4.07;;;15.40;89.50;;;;;;5077015;28;20048;-51
2021/09/10 02:55:14;;;;;;;10.63;4.85;;;15.40;89.70;;;;;;5076705;28;20073;-50
2021/09/10 02:57:40;;;;;;;12.95;5.28;;;15.50;89.70;;;;;;5075048;28;20041;-49
2021/09/10 03:00:06;;;;;;;8.68;4.60;;;15.50;89.70;;;;;;5075538;28;20039;-51
2021/09/10 03:02:32;;;;;;;13.85;5.38;;;15.60;89.60;;;;;;5091686;28;20437;-49
2021/09/10 03:04:58;;;;;;;12.45;6.22;;;15.60;89.50;;;;;;5076563;28;20036;-49
2021/09/10 03:07:23;;;;;;;12.40;5.43;;;15.50;89.20;;;;;;5076620;28;20136;-49
2021/09/10 03:09:49;;;;;;;9.60;4.28;;;15.60;89.50;;;;;;5076565;28;20020;-49
2021/09/10 03:12:15;;;;;;;7.18;4.15;;;15.70;89.40;;;;;;5076385;28;20165;-50
2021/09/10 03:14:41;;;;;;;7.50;4.80;;;15.10;90.50;;;;;;5076559;28;20541;-51
2021/09/10 03:17:06;;;;;;;10.77;4.80;;;14.90;90.80;;;;;;5075126;28;20044;-50
2021/09/10 03:19:32;;;;;;;8.55;4.68;;;14.30;91.80;;;;;;5076259;28;20064;-51
2021/09/10 03:21:58;;;;;;;12.63;4.60;;;14.00;92.60;;;;;;5076514;28;20028;-49
2021/09/10 03:24:24;;;;;;;7.53;4.63;;;13.70;93.30;;;;;;5076177;28;20078;-51
2021/09/10 03:26:49;;;;;;;10.70;5.18;;;13.70;94.20;;;;;;5091613;28;20048;-51
2021/09/10 03:29:15;;;;;;;8.73;4.70;;;13.70;94.60;;;;;;5076229;28;20029;-49
2021/09/10 03:31:41;;;;;;;9.65;5.18;;;14.00;94.10;;;;;;5075868;28;20439;-50
2021/09/10 03:34:07;;;;;;;8.40;4.78;;;14.30;93.60;;;;;;5076058;28;20039;-51
2021/09/10 03:36:33;;;;;;;15.07;5.40;;;14.60;93.10;;;;;;5074960;28;20033;-50
2021/09/10 03:38:59;;;;;;;9.60;4.95;;;14.70;92.50;;;;;;5076015;28;20043;-51
2021/09/10 03:41:25;;;;;;;9.77;5.00;;;14.80;92.20;;;;;;5075914;28;20484;-48
2021/09/10 03:43:53;;;;;;;6.13;4.65;;;14.70;92.10;;;;;;5076295;28;20063;-50
2021/09/10 03:46:20;;;;;;;9.98;5.18;;;14.60;92.10;;;;;;5074498;28;20048;-49
2021/09/10 03:48:46;;;;;;;8.65;4.85;;;14.50;92.20;;;;;;5075485;28;20541;-51
2021/09/10 03:51:12;;;;;;;14.18;5.57;;;14.50;92.30;;;;;;5075630;28;20471;-48
2021/09/10 03:53:38;;;;;;;7.65;5.32;;;14.50;92.50;;;;;;5076088;28;20051;-50
2021/09/10 03:56:04;;;;;;;11.48;5.20;;;14.60;92.40;;;;;;5075572;28;20064;-49
2021/09/10 03:58:31;;;;;;;15.75;4.97;;;14.80;92.40;;;;;;5075503;28;20039;-50
2021/09/10 04:00:56;;;;;;;15.90;5.85;;;14.90;92.10;;;;;;5324663;22;20116;-49
2021/09/10 04:03:22;;;;;;;9.95;5.50;;;14.90;92.00;;;;;;5077597;28;20035;-51
2021/09/10 04:05:48;;;;;;;12.85;5.10;;;15.00;91.90;;;;;;5095755;28;20030;-49
2021/09/10 04:08:15;;;;;;;14.18;5.57;;;15.00;91.90;;;;;;5096030;28;20024;-51
2021/09/10 04:10:40;;;;;;;8.00;5.32;;;15.00;91.90;;;;;;5095841;28;20046;-51
2021/09/10 04:13:06;;;;;;;13.80;6.18;;;14.90;92.00;;;;;;5095882;28;20536;-51
2021/09/10 04:15:32;;;;;;;15.48;6.22;;;14.90;92.00;;;;;;5095748;28;20031;-48
2021/09/10 04:17:58;;;;;;;8.80;5.20;;;14.90;91.80;;;;;;5096065;28;20024;-48
2021/09/10 04:20:24;;;;;;;13.77;5.82;;;14.70;92.30;;;;;;5060267;28;20386;-50
2021/09/10 04:22:49;;;;;;;12.60;5.45;;;14.60;92.60;;;;;;5095708;28;20031;-50
2021/09/10 04:25:16;;;;;;;8.85;4.88;;;14.70;92.50;;;;;;5095614;28;20016;-48
2021/09/10 04:27:41;;;;;;;8.43;5.60;;;14.60;92.40;;;;;;5095354;28;20020;-50
2021/09/10 04:30:09;;;;;;;14.48;5.50;;;14.50;92.70;;;;;;5095097;28;20024;-50
2021/09/10 04:32:35;;;;;;;11.13;5.65;;;14.30;92.90;;;;;;5095465;28;20042;-48
2021/09/10 04:35:01;;;;;;;13.00;5.85;;;14.30;93.30;;;;;;5095502;28;20020;-48
2021/09/10 04:37:27;;;;;;;12.63;5.60;;;14.40;93.30;;;;;;5095430;28;20016;-49
2021/09/10 04:39:53;;;;;;;15.10;6.25;;;14.60;93.00;;;;;;5076727;28;20025;-51
2021/09/10 04:42:19;;;;;;;16.67;6.82;;;14.70;92.80;;;;;;5095009;28;20081;-50
2021/09/10 04:44:45;;;;;;;13.68;5.82;;;14.60;93.00;;;;;;5076474;28;20035;-50
2021/09/10 04:47:10;;;;;;;20.70;6.82;;;14.80;92.80;;;;;;5094963;28;20016;-50
2021/09/10 04:49:36;;;;;;;14.00;6.20;;;14.90;92.70;;;;;;5095034;28;20020;-49
2021/09/10 04:52:02;;;;;;;16.25;6.88;;;14.90;92.50;;;;;;5094757;28;20024;-51
2021/09/10 04:54:28;;;;;;;14.80;6.93;;;15.10;92.30;;;;;;5059860;28;20039;-49
2021/09/10 04:56:53;;;;;;;21.00;6.75;;;15.20;92.50;;;;;;5095088;28;20429;-49
2021/09/10 04:59:19;;;;;;;16.65;6.40;;;15.30;92.50;;;;;;5094802;28;20024;-49
2021/09/10 05:01:47;;;;;;;13.05;5.35;;;15.30;92.20;;;;;;5094616;28;20478;-50
2021/09/10 05:04:13;;;;;;;14.55;5.95;;;15.40;92.10;;;;;;5095217;28;20024;-48
2021/09/10 05:06:38;;;;;;;12.68;6.10;;;15.50;92.20;;;;;;5094888;28;20031;-50
2021/09/10 05:09:04;;;;;;;16.45;5.43;;;15.50;92.10;;;;;;5094521;28;20016;-51
2021/09/10 05:11:30;;;;;;;13.60;5.68;;;15.50;92.00;;;;;;5076271;28;20024;-49
2021/09/10 05:13:56;;;;;;;19.70;6.28;;;15.60;91.90;;;;;;5094792;28;20020;-48
2021/09/10 05:16:21;;;;;;;12.45;5.13;;;15.70;91.80;;;;;;5075729;28;20047;-52
2021/09/10 05:18:47;;;;;;;8.95;5.35;;;15.50;92.10;;;;;;5076305;28;20046;-49
2021/09/10 05:21:13;;;;;;;11.85;5.00;;;15.50;92.30;;;;;;5075651;28;20388;-52
2021/09/10 05:23:39;;;;;;;12.95;5.75;;;15.60;92.10;;;;;;5094195;28;20115;-51
2021/09/10 05:26:04;;;;;;;12.25;5.38;;;15.60;92.10;;;;;;5094554;28;20028;-49
2021/09/10 05:28:30;;;;;;;10.85;5.13;;;15.60;92.20;;;;;;5094452;28;20034;-50
2021/09/10 05:30:56;;;;;;;13.48;5.05;;;15.70;92.10;;;;;;5094218;28;20104;-51
2021/09/10 05:33:22;;;;;;;6.72;5.25;;;15.70;92.00;;;;;;5094317;28;20528;-50
2021/09/10 05:35:48;;;;;;;8.48;5.47;;;15.70;92.20;;;;;;5094777;28;20348;-50
2021/09/10 05:38:13;;;;;;;15.20;6.70;;;15.70;92.60;;;;;;5094024;28;20024;-52
2021/09/10 05:40:39;;;;;;;8.90;6.13;;;15.80;92.20;;;;;;5094157;28;20026;-51
2021/09/10 05:43:05;;;;;;;8.73;5.75;;;15.90;92.20;;;;;;5076537;28;20464;-51
2021/09/10 05:45:31;;;;;;;9.40;5.03;;;15.90;92.10;;;;;;5094378;28;20096;-51
2021/09/10 05:47:57;;;;;;;9.50;5.47;;;15.90;92.00;;;;;;5094254;28;20020;-49
2021/09/10 05:50:23;;;;;;;6.80;5.32;;;16.00;91.90;;;;;;5094096;28;20062;-50
2021/09/10 05:52:49;;;;;;;9.80;5.53;;;16.10;91.90;;;;;;5076401;28;20075;-49
2021/09/10 05:55:15;;;;;;;7.78;5.18;;;16.20;91.80;;;;;;5094107;28;20458;-50
2021/09/10 05:57:40;;;;;;;8.43;4.70;;;16.20;91.80;;;;;;5075740;28;20035;-50
2021/09/10 06:00:07;;;;;;;9.82;6.07;;;16.40;91.90;;;;;;5093273;28;20044;-49
2021/09/10 06:02:33;;;;;;;13.50;6.25;;;16.30;91.90;;;;;;5094026;28;20020;-49
2021/09/10 06:04:58;;;;;;;8.90;5.80;;;16.40;92.30;;;;;;5075567;28;20092;-51
2021/09/10 06:07:24;;;;;;;7.35;5.55;;;16.40;92.20;;;;;;5093695;28;20016;-50
2021/09/10 06:09:50;;;;;;;15.40;7.03;;;16.60;92.20;;;;;;5093869;28;20020;-50
2021/09/10 06:12:15;;;;;;;10.48;6.35;;;16.60;92.10;;;;;;5093545;28;20032;-49
2021/09/10 06:14:41;;;;;;;9.05;5.32;;;16.70;92.20;;;;;;5093475;28;20020;-52
2021/09/10 06:17:07;;;;;;;8.90;6.15;;;16.90;91.90;;;;;;5093881;28;20035;-50
2021/09/10 06:19:33;;;;;;;12.20;6.10;;;16.90;91.90;;;;;;5093480;28;20055;-47
2021/09/10 06:21:58;;;;;;;13.43;6.03;;;17.00;92.00;;;;;;5093876;28;20036;-48
2021/09/10 06:24:24;;;;;;;14.35;5.50;;;17.20;91.90;;;;;;5093836;28;20092;-49
2021/09/10 06:26:50;;;;;;;9.43;6.28;;;17.40;91.50;;;;;;5094047;28;20024;-48
2021/09/10 06:29:16;;;;;;;11.15;5.97;;;17.60;91.80;;;;;;5091685;28;20024;-47
2021/09/10 06:31:42;;;;;;;8.75;5.65;;;17.50;91.80;;;;;;5093366;28;20121;-49
2021/09/10 06:34:08;;;;;;;8.23;6.10;;;17.70;91.70;;;;;;5093715;28;20032;-50
2021/09/10 06:36:34;;;;;;;8.00;5.32;;;17.90;91.80;;;;;;5093733;28;20103;-50
2021/09/10 06:39:00;;;;;;;8.68;5.85;;;18.00;91.50;;;;;;5093934;28;20524;-47
2021/09/10 06:41:25;;;;;;;6.93;5.45;;;18.20;91.00;;;;;;5093207;28;20024;-48
2021/09/10 06:43:51;;;;;;;10.60;5.82;;;18.50;90.90;;;;;;5093640;28;20017;-49
2021/09/10 06:46:17;;;;;;;9.25;5.70;;;18.70;90.50;;;;;;5093651;28;20455;-48
2021/09/10 06:48:43;;;;;;;10.35;5.30;;;18.70;90.00;;;;;;5074816;28;20460;-49
2021/09/10 06:51:08;;;;;;;7.35;5.13;;;18.80;89.90;;;;;;5093449;28;20028;-50
2021/09/10 06:53:35;;;;;;;11.52;6.03;;;19.00;89.70;;;;;;5093207;28;20059;-51
2021/09/10 06:56:01;;;;;;;11.20;6.60;;;19.20;88.60;;;;;;5093550;28;20029;-49
2021/09/10 06:58:28;;;;;;;14.15;6.20;;;19.10;88.90;;;;;;5093532;28;20020;-48
2021/09/10 07:00:53;;;;;;;11.25;5.30;;;19.30;88.60;;;;;;5092934;28;20083;-51
2021/09/10 07:03:19;;;;;;;12.68;5.57;;;19.40;88.50;;;;;;5093217;28;20056;-49
2021/09/10 07:05:45;;;;;;;10.48;5.97;;;19.60;88.40;;;;;;5074958;28;20047;-51
2021/09/10 07:08:10;;;;;;;10.07;5.90;;;19.80;86.60;;;;;;5074942;28;20032;-51
2021/09/10 07:10:36;;;;;;;12.10;5.03;;;20.00;86.60;;;;;;5093572;28;20017;-48
2021/09/10 07:13:03;;;;;;;7.22;4.47;;;20.10;86.10;;;;;;5078018;28;20043;-49
2021/09/10 07:15:28;;;;;;;8.75;4.43;;;20.30;85.60;;;;;;5096772;28;20024;-50
2021/09/10 07:17:54;;;;;;;8.88;4.13;;;20.50;85.50;;;;;;5095371;28;20072;-48
2021/09/10 07:20:20;;;;;;;10.57;3.88;;;20.30;84.10;;;;;;5096787;28;20016;-47
2021/09/10 07:22:45;;;;;;;18.60;5.18;;;20.30;84.40;;;;;;5096905;28;20103;-50
2021/09/10 07:25:11;;;;;;;11.25;4.25;;;20.70;85.50;;;;;;5096465;28;20024;-50
2021/09/10 07:27:37;;;;;;;8.80;4.20;;;20.90;84.00;;;;;;5097318;28;20020;-48
2021/09/10 07:30:04;;;;;;;10.15;4.05;;;21.10;84.10;;;;;;5096243;28;20026;-49
2021/09/10 07:32:29;;;;;;;11.07;3.30;;;21.40;84.20;;;;;;5096630;28;20024;-51
2021/09/10 07:34:55;;;;;;;6.78;3.75;;;21.80;83.60;;;;;;5096925;28;20028;-48
2021/09/10 07:37:27;;;;;;;9.32;4.35;;;21.90;81.00;;;;;;5096732;28;20052;-48
2021/09/10 07:39:56;;;;;;;8.85;4.50;;;22.10;82.10;;;;;;5096154;28;20065;-51
2021/09/10 07:42:22;;;;;;;7.85;4.38;;;22.00;81.40;;;;;;5078063;28;20094;-48
2021/09/10 07:44:49;;;;;;;10.77;4.82;;;22.10;81.00;;;;;;5096612;28;20107;-50
2021/09/10 07:47:15;;;;;;;7.55;4.03;;;22.40;80.40;;;;;;5096467;28;20043;-50
2021/09/10 07:49:45;;;;;;;7.72;4.22;;;22.70;79.70;;;;;;5096236;28;20032;-49
2021/09/10 07:52:10;;;;;;;8.85;3.75;;;23.10;79.80;;;;;;5095967;28;20505;-50
2021/09/10 07:54:37;;;;;;;5.65;4.20;;;23.30;78.70;;;;;;5096078;28;20016;-49
2021/09/10 07:57:03;;;;;;;7.07;4.00;;;23.60;77.00;;;;;;5096233;28;20043;-50
2021/09/10 07:59:29;;;;;;;7.75;3.80;;;23.70;76.30;;;;;;5095469;28;20035;-50
2021/09/10 08:01:55;;;;;;;9.00;3.83;;;24.00;76.50;;;;;;5096467;28;20058;-49
2021/09/10 08:04:21;;;;;;;10.60;4.47;;;24.30;76.50;;;;;;5094194;28;20391;-50
2021/09/10 08:06:47;;;;;;;5.10;3.95;;;24.20;74.40;;;;;;5096333;28;20024;-50
2021/09/10 08:09:12;;;;;;;10.13;4.20;;;24.60;74.00;;;;;;5096119;28;20023;-51
2021/09/10 08:11:38;;;;;;;7.65;4.22;;;24.80;75.20;;;;;;5077165;28;20505;-49
2021/09/10 08:14:07;;;;;;;12.82;4.40;;;25.10;73.10;;;;;;5095548;28;20043;-50
2021/09/10 08:16:34;;;;;;;11.73;4.13;;;25.30;72.90;;;;;;5095820;28;20039;-48
2021/09/10 08:19:00;;;;;;;9.73;4.15;;;25.60;71.30;;;;;;5095700;28;20024;-50
2021/09/10 08:21:26;;;;;;;9.23;4.13;;;25.70;70.60;;;;;;5095260;28;20463;-51
2021/09/10 08:23:52;;;;;;;7.38;3.45;;;25.80;70.10;;;;;;5077261;28;20036;-49
2021/09/10 08:26:17;;;;;;;11.35;4.22;;;25.90;69.30;;;;;;5077459;28;20032;-49
2021/09/10 08:28:44;;;;;;;9.85;3.10;;;25.90;69.70;;;;;;5095603;28;20475;-50
2021/09/10 08:31:09;;;;;;;10.57;3.90;;;26.30;68.10;;;;;;5093494;28;20410;-49
2021/09/10 08:33:35;;;;;;;11.93;4.70;;;26.40;68.70;;;;;;5093508;28;20127;-49
2021/09/10 08:36:02;;;;;;;8.23;3.92;;;26.60;69.00;;;;;;5076742;28;20483;-50
2021/09/10 08:38:28;;;;;;;6.38;4.13;;;26.70;67.20;;;;;;5095467;28;20028;-50
2021/09/10 08:40:57;;;;;;;11.95;4.18;;;27.00;67.60;;;;;;5094801;28;20031;-52
2021/09/10 08:43:24;;;;;;;6.10;3.17;;;27.20;67.60;;;;;;5091650;28;20021;-49
2021/09/10 08:45:50;;;;;;;5.30;3.28;;;27.60;73.50;;;;;;5095473;28;20332;-49
2021/09/10 08:48:17;;;;;;;7.00;3.35;;;26.80;69.20;;;;;;5095167;28;20412;-52
2021/09/10 08:50:45;;;;;;;4.68;3.17;;;27.40;69.00;;;;;;5059441;28;20071;-50
2021/09/10 08:53:11;;;;;;;6.35;3.17;;;27.60;66.10;;;;;;5094542;28;20036;-49
2021/09/10 08:55:37;;;;;;;9.32;4.05;;;27.90;66.40;;;;;;5094937;28;20367;-50
2021/09/10 08:58:03;;;;;;;7.90;3.63;;;28.40;86.80;;;;;;5093446;28;20156;-52
2021/09/10 09:00:34;;;;;;;6.53;3.78;;;28.30;83.90;;;;;;5091749;28;20109;-52
2021/09/10 09:03:09;;;;;;;5.72;3.60;;;28.90;65.40;;;;;;5094447;28;20033;-50
2021/09/10 09:05:36;;;;;;;7.65;3.80;;;28.70;63.90;;;;;;5110015;28;20096;-50
2021/09/10 09:08:14;;;;;;;4.80;2.92;;;28.60;62.90;;;;;;5093739;28;20028;-52
2021/09/10 09:11:11;;;;;;;4.30;3.20;;;28.70;62.60;;;;;;5074280;28;20025;-51
2021/09/10 09:13:38;;;;;;;5.22;3.10;;;;;;;;;;5072478;28;20400;-50
2021/09/10 09:16:19;;;;;;;7.22;3.40;;;29.40;61.40;;;;;;5074021;28;20069;-52
2021/09/10 09:18:50;;;;;;;5.50;3.75;;;;;;;;;;5074427;28;20096;-51
2021/09/10 09:21:29;;;;;;;6.22;3.60;;;30.00;60.30;;;;;;5074079;28;20028;-51
2021/09/10 09:24:17;;;;;;;9.30;3.25;;;29.90;61.80;;;;;;5055645;28;20120;-49
2021/09/10 09:26:44;;;;;;;5.22;3.47;;;;;;;;;;5070161;28;20039;-52
2021/09/10 09:29:14;;;;;;;8.32;3.22;;;;;;;;;;5091751;28;20032;-51
2021/09/10 09:31:52;;;;;;;12.02;3.67;;;30.00;59.60;;;;;;5088257;28;20093;-49
2021/09/10 09:34:48;;;;;;;4.45;2.95;;;30.40;61.60;;;;;;5073431;28;20029;-50
2021/09/10 09:37:19;;;;;;;7.03;2.80;;;30.00;60.30;;;;;;5061609;28;20390;-51
2021/09/10 09:39:52;;;;;;;7.30;3.60;;;30.50;60.70;;;;;;5094354;28;20024;-52
2021/09/10 09:42:31;;;;;;;8.82;3.45;;;30.20;59.20;;;;;;5056554;28;20119;-50
2021/09/10 09:45:11;;;;;;;8.00;3.20;;;30.60;59.50;;;;;;5094508;28;20438;-53
2021/09/10 09:47:38;;;;;;;8.05;3.97;;;30.20;59.70;;;;;;5093830;28;20051;-52
2021/09/10 09:50:15;;;;;;;6.35;3.10;;;29.90;59.30;;;;;;5058963;28;20028;-50
2021/09/10 09:52:41;;;;;;;6.30;3.38;;;;;;;;;;5093011;28;20032;-52
2021/09/10 09:55:09;;;;;;;7.18;3.10;;;31.10;59.70;;;;;;5092234;28;20024;-49
2021/09/10 09:57:35;;;;;;;5.70;2.97;;;30.90;57.90;;;;;;5071302;28;20032;-52
2021/09/10 10:00:03;;;;;;;6.07;2.53;;;;;;;;;;5067057;28;20052;-51
2021/09/10 10:02:29;;;;;;;6.88;3.08;;;;;;;;;;5069824;28;20093;-49
2021/09/10 10:04:58;;;;;;;6.15;2.70;;;;;;;;;;5053876;28;20058;-52
2021/09/10 10:07:25;;;;;;;7.93;2.60;;;31.90;60.90;;;;;;5067765;28;20032;-49
2021/09/10 10:09:52;;;;;;;4.53;2.40;;;32.30;73.40;;;;;;5071534;28;20037;-51
2021/09/10 10:12:23;;;;;;;5.60;2.83;;;31.90;78.90;;;;;;5059951;28;20047;-51
2021/09/10 10:14:50;;;;;;;9.60;2.85;;;;;;;;;;5069175;28;20073;-51
2021/09/10 10:17:31;;;;;;;4.43;2.88;;;;;;;;;;5070120;28;20037;-52
2021/09/10 10:19:57;;;;;;;3.70;2.50;;;;;;;;;;5065120;28;20036;-51
2021/09/10 10:22:42;;;;;;;5.07;2.95;;;;;;;;;;5069593;28;20056;-52
2021/09/10 10:25:11;;;;;;;6.68;2.42;;;30.60;88.10;;;;;;5069760;28;20021;-51
2021/09/10 10:27:40;;;;;;;5.63;2.97;;;;;;;;;;5072022;28;20504;-51
2021/09/10 10:30:18;;;;;;;8.50;2.72;;;30.80;91.00;;;;;;5092241;28;20028;-52
2021/09/10 10:32:49;;;;;;;5.70;2.30;;;30.20;76.00;;;;;;5092104;28;20051;-52
2021/09/10 10:35:15;;;;;;;4.25;2.60;;;;;;;;;;5090180;28;20450;-52
2021/09/10 10:37:43;;;;;;;7.85;3.28;;;;;;;;;;5090106;28;20376;-50
2021/09/10 10:40:38;;;;;;;8.10;3.00;;;32.10;90.20;;;;;;5092151;28;20071;-52
2021/09/10 10:43:08;;;;;;;7.70;2.80;;;32.60;56.30;;;;;;5029515;28;20041;-49
2021/09/10 10:45:46;;;;;;;5.82;2.60;;;;;;;;;;5030657;28;20040;-51
2021/09/10 10:48:32;;;;;;;5.30;2.40;;;33.20;59.00;;;;;;5033538;28;20172;-51
2021/09/10 10:51:03;;;;;;;6.68;3.03;;;33.40;54.80;;;;;;5016723;28;20033;-51
2021/09/10 10:53:51;;;;;;;9.23;2.90;;;33.50;55.80;;;;;;5033402;28;20053;-51
2021/09/10 10:56:26;;;;;;;3.90;2.42;;;33.10;55.10;;;;;;5033363;28;20112;-52
2021/09/10 10:59:14;;;;;;;7.43;2.35;;;32.30;54.50;;;;;;5033619;28;20025;-52
2021/09/10 11:04:49;;;;;;;6.90;2.60;;;33.00;56.10;;;;;;5034864;28;20045;-51
2021/09/10 11:07:25;;;;;;;4.35;2.53;;;33.30;54.50;;;;;;4995229;28;20093;-51
2021/09/10 11:10:01;;;;;;;4.95;2.63;;;33.60;53.60;;;;;;4975470;28;20065;-49
2021/09/10 11:12:27;;;;;;;5.38;2.50;;;33.00;54.50;;;;;;4975597;28;20049;-51
2021/09/10 11:14:53;;;;;;;5.45;2.88;;;33.40;54.10;;;;;;4975544;28;20037;-50
2021/09/10 11:17:26;;;;;;;4.57;2.63;;;33.00;53.60;;;;;;4959821;28;20043;-51
2021/09/10 11:19:54;;;;;;;9.68;2.53;;;32.90;54.10;;;;;;5014385;28;20052;-49
2021/09/10 11:22:20;;;;;;;5.15;2.40;;;33.40;54.30;;;;;;5034351;28;20094;-51
2021/09/10 11:24:47;;;;;;;5.97;3.15;;;33.50;55.50;;;;;;5034284;28;20109;-52
2021/09/10 11:27:26;;;;;;;8.93;2.95;;;33.10;64.10;;;;;;5017959;28;20042;-50
2021/09/10 11:29:52;;;;;;;6.15;2.78;;;33.50;53.60;;;;;;4981310;28;20034;-51
2021/09/10 11:32:26;;;;;;;7.57;2.30;;;33.30;57.10;;;;;;4997975;28;20496;-50
2021/09/10 11:34:53;;;;;;;6.97;2.85;;;33.30;61.40;;;;;;4997477;28;20610;-50
2021/09/10 11:37:25;;;;;;;7.72;2.75;;;33.40;53.80;;;;;;5017176;28;20033;-52
2021/09/10 11:39:51;;;;;;;6.65;2.80;;;33.10;54.20;;;;;;5035664;28;20033;-50
2021/09/10 11:42:35;;;;;;;6.55;3.00;;;32.80;68.60;;;;;;4972174;28;20547;-52
2021/09/10 11:45:07;;;;;;;7.65;2.72;;;33.00;66.40;;;;;;5054062;28;20029;-49
2021/09/10 11:47:33;;;;;;;7.28;3.13;;;33.20;66.00;;;;;;5004339;28;20040;-50
2021/09/10 11:50:00;;;;;;;6.43;2.80;;;32.80;64.50;;;;;;4971994;28;20476;-49
2021/09/10 11:52:31;;;;;;;4.15;2.70;;;32.70;54.00;;;;;;5053615;28;20032;-51
2021/09/10 11:55:17;;;;;;;8.85;2.80;;;32.70;54.80;;;;;;5053722;28;20033;-49
2021/09/10 11:57:44;;;;;;;5.70;2.40;;;33.00;54.90;;;;;;5052853;28;20630;-52
2021/09/10 12:00:23;;;;;;;5.43;2.45;;;33.10;70.70;;;;;;5053353;28;20044;-51
2021/09/10 12:02:54;;;;;;;4.47;2.53;;;33.10;53.20;;;;;;5053699;28;20037;-49
2021/09/10 12:05:20;;;;;;;;;;;33.60;52.70;;;;;;5054733;28;20376;-52
2021/09/10 12:07:49;;;;;;;6.40;2.70;;;33.60;54.50;;;;;;5083508;28;19915;-51
2021/09/10 12:10:30;;;;;;;3.92;2.28;;;33.20;54.00;;;;;;5096523;28;20379;-52
2021/09/10 12:13:15;;;;;;;6.95;2.90;;;32.60;53.20;;;;;;5094183;28;20050;-52
2021/09/10 12:15:43;;;;;;;3.95;2.42;;;32.50;53.30;;;;;;5094824;28;20047;-50
2021/09/10 12:18:13;;;;;;;11.77;3.33;;;32.70;53.70;;;;;;5075390;28;20120;-50
2021/09/10 12:20:40;;;;;;;5.00;2.50;;;33.10;53.40;;;;;;5094323;28;20039;-52
2021/09/10 12:23:07;;;;;;;7.32;3.22;;;33.10;53.70;;;;;;5094230;28;20028;-51
2021/09/10 12:25:35;;;;;;;5.57;2.55;;;33.40;53.30;;;;;;5093717;28;20036;-50
2021/09/10 12:28:07;;;;;;;5.80;2.55;;;33.70;53.60;;;;;;5094143;28;20067;-49
2021/09/10 12:30:38;;;;;;;8.48;3.72;;;33.40;53.10;;;;;;5094204;28;20040;-52
2021/09/10 12:33:06;;;;;;;3.10;2.55;;;33.70;53.30;;;;;;5094004;28;20170;-50
2021/09/10 12:35:33;;;;;;;5.88;2.55;;;33.40;52.90;;;;;;5094090;28;20036;-52
2021/09/10 12:38:01;;;;;;;4.32;2.75;;;32.60;53.40;;;;;;5074957;28;20063;-51
2021/09/10 12:40:36;;;;;;;4.43;2.13;;;32.90;54.60;;;;;;5093483;28;20038;-50
2021/09/10 12:43:04;;;;;;;3.80;2.40;;;33.00;53.20;;;;;;5093877;28;20032;-51
2021/09/10 12:45:30;;;;;;;3.55;2.33;;;32.80;52.90;;;;;;5093820;28;20048;-51
2021/09/10 12:47:56;;;;;;;6.18;2.70;;;32.60;53.00;;;;;;5093709;28;20035;-52
2021/09/10 12:50:23;;;;;;;7.80;2.70;;;32.60;59.70;;;;;;5093787;28;20040;-50
2021/09/10 12:52:49;;;;;;;4.20;2.30;;;32.80;53.80;;;;;;5093186;28;20028;-49
2021/09/10 12:55:14;;;;;;;4.53;2.38;;;32.40;53.50;;;;;;5074790;28;20065;-49
2021/09/10 12:57:40;;;;;;;5.03;2.42;;;32.70;55.50;;;;;;5057849;28;20066;-49